sensor_id;sensor_type;location;lat;lon;timestamp;pressure;altitude;pressure_sealevel;temperature;humidity
69911;BME280;63555;49.920;17.868;2022-10-23T00:00:04;99078.75;;;5.89;100.00
69911;BME280;63555;49.920;17.868;2022-10-23T00:02:30;99078.44;;;5.84;100.00
69911;BME280;63555;49.920;17.868;2022-10-23T00:04:55;99088.44;;;5.81;100.00
69911;BME280;63555;49.920;17.868;2022-10-23T00:07:20;99081.78;;;5.78;100.00
69911;BME280;63555;49.920;17.868;2022-10-23T00:09:46;99081.13;;;5.76;100.00
69911;BME280;63555;49.920;17.868;2022-10-23T00:12:11;99080.50;;;5.74;100.00
69911;BME280;63555;49.920;17.868;2022-10-23T00:14:37;99076.47;;;5.72;100.00
69911;BME280;63555;49.920;17.868;2022-10-23T00:17:02;99074.03;;;5.70;100.00
69911;BME280;63555;49.920;17.868;2022-10-23T00:19:28;99081.84;;;5.70;100.00
69911;BME280;63555;49.920;17.868;2022-10-23T00:21:53;99078.25;;;5.71;100.00
69911;BME280;63555;49.920;17.868;2022-10-23T00:24:19;99072.22;;;5.71;100.00
69911;BME280;63555;49.920;17.868;2022-10-23T00:26:44;99075.00;;;5.69;100.00
69911;BME280;63555;49.920;17.868;2022-10-23T00:29:10;99076.19;;;5.67;100.00
69911;BME280;63555;49.920;17.868;2022-10-23T00:31:36;99077.53;;;5.63;100.00
69911;BME280;63555;49.920;17.868;2022-10-23T00:34:02;99079.66;;;5.59;100.00
69911;BME280;63555;49.920;17.868;2022-10-23T00:36:28;99084.44;;;5.55;100.00
69911;BME280;63555;49.920;17.868;2022-10-23T00:38:54;99076.31;;;5.50;100.00
69911;BME280;63555;49.920;17.868;2022-10-23T00:41:23;99083.69;;;5.47;100.00
69911;BME280;63555;49.920;17.868;2022-10-23T00:44:08;99080.44;;;5.45;100.00
69911;BME280;63555;49.920;17.868;2022-10-23T00:46:36;99087.63;;;5.43;100.00
69911;BME280;63555;49.920;17.868;2022-10-23T00:49:04;99084.38;;;5.41;100.00
69911;BME280;63555;49.920;17.868;2022-10-23T00:51:37;99083.75;;;5.39;100.00
69911;BME280;63555;49.920;17.868;2022-10-23T00:54:03;99081.97;;;5.39;100.00
69911;BME280;63555;49.920;17.868;2022-10-23T00:56:29;99093.38;;;5.38;100.00
69911;BME280;63555;49.920;17.868;2022-10-23T00:58:56;99098.59;;;5.38;100.00
69911;BME280;63555;49.920;17.868;2022-10-23T01:01:22;99096.69;;;5.32;100.00
69911;BME280;63555;49.920;17.868;2022-10-23T01:03:48;99099.47;;;5.31;100.00
69911;BME280;63555;49.920;17.868;2022-10-23T01:06:17;99092.81;;;5.28;100.00
69911;BME280;63555;49.920;17.868;2022-10-23T01:08:56;99095.94;;;5.23;100.00
69911;BME280;63555;49.920;17.868;2022-10-23T01:11:38;99096.09;;;5.22;100.00
69911;BME280;63555;49.920;17.868;2022-10-23T01:14:14;99093.88;;;5.19;100.00
69911;BME280;63555;49.920;17.868;2022-10-23T01:17:02;99096.03;;;5.15;100.00
69911;BME280;63555;49.920;17.868;2022-10-23T01:19:45;99096.19;;;5.14;100.00
69911;BME280;63555;49.920;17.868;2022-10-23T01:22:45;99083.50;;;5.11;100.00
69911;BME280;63555;49.920;17.868;2022-10-23T01:28:15;99093.28;;;5.09;100.00
69911;BME280;63555;49.920;17.868;2022-10-23T01:30:43;99094.63;;;5.05;100.00
69911;BME280;63555;49.920;17.868;2022-10-23T01:33:12;99098.38;;;5.02;100.00
69911;BME280;63555;49.920;17.868;2022-10-23T01:36:00;99090.09;;;4.99;100.00
69911;BME280;63555;49.920;17.868;2022-10-23T01:38:40;99092.88;;;4.97;100.00
69911;BME280;63555;49.920;17.868;2022-10-23T01:43:57;99089.16;;;4.91;100.00
69911;BME280;63555;49.920;17.868;2022-10-23T01:46:26;99093.56;;;4.91;100.00
69911;BME280;63555;49.920;17.868;2022-10-23T01:48:54;99092.13;;;4.88;100.00
69911;BME280;63555;49.920;17.868;2022-10-23T01:51:23;99101.56;;;4.89;100.00
69911;BME280;63555;49.920;17.868;2022-10-23T01:53:52;99103.53;;;4.87;100.00
69911;BME280;63555;49.920;17.868;2022-10-23T01:56:27;99100.91;;;4.87;100.00
69911;BME280;63555;49.920;17.868;2022-10-23T01:58:55;99107.94;;;4.87;100.00
69911;BME280;63555;49.920;17.868;2022-10-23T02:01:25;99109.72;;;4.86;100.00
69911;BME280;63555;49.920;17.868;2022-10-23T02:03:52;99112.31;;;4.86;100.00
69911;BME280;63555;49.920;17.868;2022-10-23T02:06:18;99121.78;;;4.87;100.00
69911;BME280;63555;49.920;17.868;2022-10-23T02:08:44;99116.38;;;4.89;100.00
69911;BME280;63555;49.920;17.868;2022-10-23T02:11:13;99117.50;;;4.94;100.00
69911;BME280;63555;49.920;17.868;2022-10-23T02:13:58;99122.19;;;4.99;100.00
69911;BME280;63555;49.920;17.868;2022-10-23T02:16:56;99112.06;;;5.04;100.00
69911;BME280;63555;49.920;17.868;2022-10-23T02:19:30;99121.28;;;5.15;100.00
69911;BME280;63555;49.920;17.868;2022-10-23T02:22:11;99121.19;;;5.23;100.00
69911;BME280;63555;49.920;17.868;2022-10-23T02:24:43;99119.09;;;5.41;100.00
69911;BME280;63555;49.920;17.868;2022-10-23T02:27:17;99114.84;;;5.63;100.00
69911;BME280;63555;49.920;17.868;2022-10-23T02:30:05;99118.94;;;5.80;100.00
69911;BME280;63555;49.920;17.868;2022-10-23T02:32:31;99113.97;;;5.93;100.00
69911;BME280;63555;49.920;17.868;2022-10-23T02:34:58;99113.13;;;6.08;100.00
69911;BME280;63555;49.920;17.868;2022-10-23T02:37:23;99127.19;;;6.21;100.00
69911;BME280;63555;49.920;17.868;2022-10-23T02:39:50;99125.13;;;6.32;100.00
69911;BME280;63555;49.920;17.868;2022-10-23T02:42:22;99123.88;;;6.42;100.00
69911;BME280;63555;49.920;17.868;2022-10-23T02:47:34;99123.56;;;6.67;100.00
69911;BME280;63555;49.920;17.868;2022-10-23T02:50:16;99122.25;;;6.77;100.00
69911;BME280;63555;49.920;17.868;2022-10-23T02:58:29;99126.03;;;6.89;100.00
69911;BME280;63555;49.920;17.868;2022-10-23T03:00:58;99125.03;;;6.90;100.00
69911;BME280;63555;49.920;17.868;2022-10-23T03:03:35;99125.84;;;6.91;100.00
69911;BME280;63555;49.920;17.868;2022-10-23T03:06:02;99117.81;;;6.92;100.00
69911;BME280;63555;49.920;17.868;2022-10-23T03:08:28;99130.88;;;6.92;100.00
69911;BME280;63555;49.920;17.868;2022-10-23T03:10:53;99135.13;;;6.93;100.00
69911;BME280;63555;49.920;17.868;2022-10-23T03:13:19;99131.50;;;6.95;100.00
69911;BME280;63555;49.920;17.868;2022-10-23T03:15:44;99128.09;;;6.94;100.00
69911;BME280;63555;49.920;17.868;2022-10-23T03:18:10;99134.13;;;6.95;100.00
69911;BME280;63555;49.920;17.868;2022-10-23T03:20:35;99135.75;;;6.96;100.00
69911;BME280;63555;49.920;17.868;2022-10-23T03:23:00;99136.13;;;6.92;100.00
69911;BME280;63555;49.920;17.868;2022-10-23T03:25:26;99139.91;;;6.90;100.00
69911;BME280;63555;49.920;17.868;2022-10-23T03:27:52;99143.69;;;6.87;100.00
69911;BME280;63555;49.920;17.868;2022-10-23T03:30:18;99135.59;;;6.82;100.00
69911;BME280;63555;49.920;17.868;2022-10-23T03:32:43;99141.38;;;6.78;100.00
69911;BME280;63555;49.920;17.868;2022-10-23T03:35:08;99141.28;;;6.71;100.00
69911;BME280;63555;49.920;17.868;2022-10-23T03:37:34;99136.63;;;6.67;100.00
69911;BME280;63555;49.920;17.868;2022-10-23T03:39:59;99136.00;;;6.65;100.00
69911;BME280;63555;49.920;17.868;2022-10-23T03:42:25;99124.13;;;6.62;100.00
69911;BME280;63555;49.920;17.868;2022-10-23T03:44:50;99128.00;;;6.51;100.00
69911;BME280;63555;49.920;17.868;2022-10-23T03:47:16;99128.09;;;6.43;100.00
69911;BME280;63555;49.920;17.868;2022-10-23T03:49:41;99131.06;;;6.40;100.00
69911;BME280;63555;49.920;17.868;2022-10-23T03:52:07;99128.47;;;6.40;100.00
69911;BME280;63555;49.920;17.868;2022-10-23T03:54:32;99125.03;;;6.40;100.00
69911;BME280;63555;49.920;17.868;2022-10-23T03:56:58;99125.75;;;6.34;100.00
69911;BME280;63555;49.920;17.868;2022-10-23T03:59:24;99133.31;;;6.29;100.00
69911;BME280;63555;49.920;17.868;2022-10-23T04:01:50;99132.88;;;6.25;100.00
69911;BME280;63555;49.920;17.868;2022-10-23T04:04:15;99135.13;;;6.28;100.00
69911;BME280;63555;49.920;17.868;2022-10-23T04:06:40;99139.81;;;6.33;100.00
69911;BME280;63555;49.920;17.868;2022-10-23T04:09:06;99142.06;;;6.36;100.00
69911;BME280;63555;49.920;17.868;2022-10-23T04:11:32;99132.78;;;6.33;100.00
69911;BME280;63555;49.920;17.868;2022-10-23T04:13:57;99126.94;;;6.31;100.00
69911;BME280;63555;49.920;17.868;2022-10-23T04:16:23;99126.13;;;6.31;100.00
69911;BME280;63555;49.920;17.868;2022-10-23T04:18:49;99128.53;;;6.32;100.00
69911;BME280;63555;49.920;17.868;2022-10-23T04:21:14;99122.69;;;6.30;100.00
69911;BME280;63555;49.920;17.868;2022-10-23T04:23:40;99127.47;;;6.26;100.00
69911;BME280;63555;49.920;17.868;2022-10-23T04:26:05;99129.28;;;6.26;100.00
69911;BME280;63555;49.920;17.868;2022-10-23T04:28:30;99133.69;;;6.25;100.00
69911;BME280;63555;49.920;17.868;2022-10-23T04:30:56;99130.72;;;6.29;100.00
69911;BME280;63555;49.920;17.868;2022-10-23T04:33:21;99128.38;;;6.34;100.00
69911;BME280;63555;49.920;17.868;2022-10-23T04:35:47;99127.00;;;6.38;100.00
69911;BME280;63555;49.920;17.868;2022-10-23T04:38:12;99135.13;;;6.43;100.00
69911;BME280;63555;49.920;17.868;2022-10-23T04:40:37;99133.50;;;6.56;100.00
69911;BME280;63555;49.920;17.868;2022-10-23T04:43:03;99132.72;;;6.77;100.00
69911;BME280;63555;49.920;17.868;2022-10-23T04:45:29;99137.00;;;7.00;100.00
69911;BME280;63555;49.920;17.868;2022-10-23T04:47:54;99137.84;;;7.21;100.00
69911;BME280;63555;49.920;17.868;2022-10-23T04:50:20;99137.81;;;7.43;100.00
69911;BME280;63555;49.920;17.868;2022-10-23T04:52:46;99140.63;;;7.63;100.00
69911;BME280;63555;49.920;17.868;2022-10-23T04:55:11;99145.59;;;7.79;100.00
69911;BME280;63555;49.920;17.868;2022-10-23T04:57:36;99149.94;;;7.93;100.00
69911;BME280;63555;49.920;17.868;2022-10-23T05:00:07;99146.78;;;8.04;100.00
69911;BME280;63555;49.920;17.868;2022-10-23T05:02:32;99146.06;;;8.17;100.00
69911;BME280;63555;49.920;17.868;2022-10-23T05:04:58;99147.31;;;8.28;100.00
69911;BME280;63555;49.920;17.868;2022-10-23T05:07:23;99148.63;;;8.38;100.00
69911;BME280;63555;49.920;17.868;2022-10-23T05:09:48;99155.13;;;8.49;100.00
69911;BME280;63555;49.920;17.868;2022-10-23T05:12:14;99162.84;;;8.57;100.00
69911;BME280;63555;49.920;17.868;2022-10-23T05:14:39;99154.00;;;8.65;100.00
69911;BME280;63555;49.920;17.868;2022-10-23T05:17:11;99160.28;;;8.70;100.00
69911;BME280;63555;49.920;17.868;2022-10-23T05:19:50;99157.69;;;8.77;100.00
69911;BME280;63555;49.920;17.868;2022-10-23T05:22:18;99157.13;;;8.81;100.00
69911;BME280;63555;49.920;17.868;2022-10-23T05:24:45;99155.53;;;8.87;100.00
69911;BME280;63555;49.920;17.868;2022-10-23T05:27:10;99159.38;;;8.91;100.00
69911;BME280;63555;49.920;17.868;2022-10-23T05:29:36;99155.72;;;8.92;100.00
69911;BME280;63555;49.920;17.868;2022-10-23T05:32:04;99163.19;;;8.95;100.00
69911;BME280;63555;49.920;17.868;2022-10-23T05:34:32;99166.63;;;8.96;100.00
69911;BME280;63555;49.920;17.868;2022-10-23T05:37:00;99165.41;;;8.98;100.00
69911;BME280;63555;49.920;17.868;2022-10-23T05:39:26;99164.03;;;9.02;100.00
69911;BME280;63555;49.920;17.868;2022-10-23T05:41:51;99166.25;;;9.05;100.00
69911;BME280;63555;49.920;17.868;2022-10-23T05:44:17;99161.00;;;9.05;100.00
69911;BME280;63555;49.920;17.868;2022-10-23T05:46:43;99163.25;;;9.08;100.00
69911;BME280;63555;49.920;17.868;2022-10-23T05:49:08;99168.91;;;9.12;100.00
69911;BME280;63555;49.920;17.868;2022-10-23T05:51:38;99171.75;;;9.17;100.00
69911;BME280;63555;49.920;17.868;2022-10-23T05:54:04;99176.00;;;9.25;100.00
69911;BME280;63555;49.920;17.868;2022-10-23T05:56:33;99177.63;;;9.32;100.00
69911;BME280;63555;49.920;17.868;2022-10-23T05:58:58;99173.81;;;9.41;100.00
69911;BME280;63555;49.920;17.868;2022-10-23T06:01:24;99178.50;;;9.52;100.00
69911;BME280;63555;49.920;17.868;2022-10-23T06:03:49;99166.78;;;9.62;100.00
69911;BME280;63555;49.920;17.868;2022-10-23T06:06:15;99165.56;;;9.71;100.00
69911;BME280;63555;49.920;17.868;2022-10-23T06:08:41;99161.31;;;9.83;100.00
69911;BME280;63555;49.920;17.868;2022-10-23T06:11:12;99154.44;;;9.95;100.00
69911;BME280;63555;49.920;17.868;2022-10-23T06:13:38;99162.31;;;10.08;100.00
69911;BME280;63555;49.920;17.868;2022-10-23T06:16:10;99156.28;;;10.21;100.00
69911;BME280;63555;49.920;17.868;2022-10-23T06:18:36;99162.53;;;10.33;100.00
69911;BME280;63555;49.920;17.868;2022-10-23T06:21:01;99163.50;;;10.45;100.00
69911;BME280;63555;49.920;17.868;2022-10-23T06:23:29;99159.41;;;10.56;100.00
69911;BME280;63555;49.920;17.868;2022-10-23T06:25:54;99157.16;;;10.66;100.00
69911;BME280;63555;49.920;17.868;2022-10-23T06:28:21;99147.22;;;10.75;100.00
69911;BME280;63555;49.920;17.868;2022-10-23T06:30:46;99158.09;;;10.85;100.00
69911;BME280;63555;49.920;17.868;2022-10-23T06:33:12;99159.28;;;10.96;100.00
69911;BME280;63555;49.920;17.868;2022-10-23T06:35:37;99155.19;;;11.06;100.00
69911;BME280;63555;49.920;17.868;2022-10-23T06:38:02;99150.44;;;11.15;100.00
69911;BME280;63555;49.920;17.868;2022-10-23T06:40:28;99149.19;;;11.24;100.00
69911;BME280;63555;49.920;17.868;2022-10-23T06:42:57;99156.41;;;11.35;100.00
69911;BME280;63555;49.920;17.868;2022-10-23T06:45:22;99155.75;;;11.46;100.00
69911;BME280;63555;49.920;17.868;2022-10-23T06:47:51;99157.31;;;11.54;100.00
69911;BME280;63555;49.920;17.868;2022-10-23T06:50:16;99169.84;;;11.59;100.00
69911;BME280;63555;49.920;17.868;2022-10-23T06:52:42;99175.50;;;11.62;100.00
69911;BME280;63555;49.920;17.868;2022-10-23T06:55:08;99178.28;;;11.67;100.00
69911;BME280;63555;49.920;17.868;2022-10-23T06:57:33;99184.91;;;11.76;100.00
69911;BME280;63555;49.920;17.868;2022-10-23T06:59:59;99178.41;;;11.86;100.00
69911;BME280;63555;49.920;17.868;2022-10-23T07:02:24;99167.56;;;11.94;100.00
69911;BME280;63555;49.920;17.868;2022-10-23T07:04:50;99170.50;;;12.04;100.00
69911;BME280;63555;49.920;17.868;2022-10-23T07:07:15;99172.66;;;12.13;100.00
69911;BME280;63555;49.920;17.868;2022-10-23T07:09:41;99168.28;;;12.26;100.00
69911;BME280;63555;49.920;17.868;2022-10-23T07:12:06;99173.44;;;12.39;100.00
69911;BME280;63555;49.920;17.868;2022-10-23T07:14:32;99173.91;;;12.54;100.00
69911;BME280;63555;49.920;17.868;2022-10-23T07:16:57;99171.88;;;12.68;100.00
69911;BME280;63555;49.920;17.868;2022-10-23T07:19:23;99176.44;;;12.79;100.00
69911;BME280;63555;49.920;17.868;2022-10-23T07:21:49;99176.50;;;12.91;100.00
69911;BME280;63555;49.920;17.868;2022-10-23T07:24:15;99175.53;;;13.03;100.00
69911;BME280;63555;49.920;17.868;2022-10-23T07:26:41;99170.53;;;13.13;100.00
69911;BME280;63555;49.920;17.868;2022-10-23T07:29:06;99167.16;;;13.25;100.00
69911;BME280;63555;49.920;17.868;2022-10-23T07:31:32;99169.28;;;13.34;100.00
69911;BME280;63555;49.920;17.868;2022-10-23T07:33:57;99164.81;;;13.46;100.00
69911;BME280;63555;49.920;17.868;2022-10-23T07:36:23;99158.28;;;13.61;100.00
69911;BME280;63555;49.920;17.868;2022-10-23T07:38:49;99155.81;;;13.77;100.00
69911;BME280;63555;49.920;17.868;2022-10-23T07:41:15;99155.38;;;13.92;100.00
69911;BME280;63555;49.920;17.868;2022-10-23T07:43:40;99159.06;;;14.03;100.00
69911;BME280;63555;49.920;17.868;2022-10-23T07:46:05;99168.00;;;14.13;100.00
69911;BME280;63555;49.920;17.868;2022-10-23T07:48:34;99169.94;;;14.18;100.00
69911;BME280;63555;49.920;17.868;2022-10-23T07:51:01;99172.13;;;14.21;100.00
69911;BME280;63555;49.920;17.868;2022-10-23T07:53:27;99176.41;;;14.22;100.00
69911;BME280;63555;49.920;17.868;2022-10-23T07:55:58;99179.72;;;14.18;100.00
69911;BME280;63555;49.920;17.868;2022-10-23T07:58:25;99179.16;;;14.15;100.00
69911;BME280;63555;49.920;17.868;2022-10-23T08:00:59;99182.25;;;14.12;100.00
69911;BME280;63555;49.920;17.868;2022-10-23T08:03:29;99183.06;;;14.13;100.00
69911;BME280;63555;49.920;17.868;2022-10-23T08:05:55;99183.41;;;14.17;100.00
69911;BME280;63555;49.920;17.868;2022-10-23T08:08:21;99184.09;;;14.24;100.00
69911;BME280;63555;49.920;17.868;2022-10-23T08:10:51;99178.59;;;14.25;100.00
69911;BME280;63555;49.920;17.868;2022-10-23T08:13:20;99185.25;;;14.28;100.00
69911;BME280;63555;49.920;17.868;2022-10-23T08:15:47;99192.03;;;14.24;100.00
69911;BME280;63555;49.920;17.868;2022-10-23T08:18:13;99194.22;;;14.27;100.00
69911;BME280;63555;49.920;17.868;2022-10-23T08:20:43;99191.13;;;14.30;100.00
69911;BME280;63555;49.920;17.868;2022-10-23T08:23:09;99199.97;;;14.35;100.00
69911;BME280;63555;49.920;17.868;2022-10-23T08:25:37;99199.28;;;14.40;100.00
69911;BME280;63555;49.920;17.868;2022-10-23T08:28:02;99194.13;;;14.45;100.00
69911;BME280;63555;49.920;17.868;2022-10-23T08:30:28;99199.53;;;14.50;100.00
69911;BME280;63555;49.920;17.868;2022-10-23T08:32:54;99196.78;;;14.57;100.00
69911;BME280;63555;49.920;17.868;2022-10-23T08:35:19;99200.47;;;14.67;100.00
69911;BME280;63555;49.920;17.868;2022-10-23T08:37:44;99192.34;;;15.26;100.00
69911;BME280;63555;49.920;17.868;2022-10-23T08:40:18;99194.75;;;15.56;100.00
69911;BME280;63555;49.920;17.868;2022-10-23T08:42:51;99202.88;;;15.66;100.00
69911;BME280;63555;49.920;17.868;2022-10-23T08:45:29;99208.69;;;15.80;100.00
69911;BME280;63555;49.920;17.868;2022-10-23T08:47:58;99204.19;;;16.14;100.00
69911;BME280;63555;49.920;17.868;2022-10-23T08:50:29;99215.88;;;16.68;100.00
69911;BME280;63555;49.920;17.868;2022-10-23T08:53:17;99212.38;;;17.06;100.00
69911;BME280;63555;49.920;17.868;2022-10-23T08:56:00;99205.97;;;17.02;100.00
69911;BME280;63555;49.920;17.868;2022-10-23T08:58:33;99205.97;;;17.29;100.00
69911;BME280;63555;49.920;17.868;2022-10-23T09:01:06;99203.94;;;17.63;100.00
69911;BME280;63555;49.920;17.868;2022-10-23T09:03:42;99208.03;;;18.39;100.00
69911;BME280;63555;49.920;17.868;2022-10-23T09:06:35;99200.47;;;19.46;100.00
69911;BME280;63555;49.920;17.868;2022-10-23T09:17:24;99180.69;;;24.23;96.01
69911;BME280;63555;49.920;17.868;2022-10-23T09:20:04;99177.44;;;24.95;91.62
69911;BME280;63555;49.920;17.868;2022-10-23T09:22:31;99177.44;;;24.95;90.21
69911;BME280;63555;49.920;17.868;2022-10-23T09:24:57;99166.59;;;25.72;84.58
69911;BME280;63555;49.920;17.868;2022-10-23T09:27:22;99156.56;;;26.26;80.43
69911;BME280;63555;49.920;17.868;2022-10-23T09:29:53;99150.66;;;27.21;74.95
69911;BME280;63555;49.920;17.868;2022-10-23T09:32:35;99150.97;;;27.71;70.08
69911;BME280;63555;49.920;17.868;2022-10-23T09:35:01;99140.25;;;28.00;68.79
69911;BME280;63555;49.920;17.868;2022-10-23T09:37:29;99140.78;;;28.70;66.17
69911;BME280;63555;49.920;17.868;2022-10-23T09:40:15;99139.31;;;29.02;61.65
69911;BME280;63555;49.920;17.868;2022-10-23T09:43:00;99137.53;;;29.48;58.79
69911;BME280;63555;49.920;17.868;2022-10-23T09:45:32;99134.78;;;29.68;58.18
69911;BME280;63555;49.920;17.868;2022-10-23T09:48:24;99136.47;;;29.73;55.26
69911;BME280;63555;49.920;17.868;2022-10-23T09:53:39;99115.69;;;29.77;54.44
69911;BME280;63555;49.920;17.868;2022-10-23T09:56:34;99116.09;;;29.55;53.39
69911;BME280;63555;49.920;17.868;2022-10-23T10:01:45;99117.06;;;28.67;53.83
69911;BME280;63555;49.920;17.868;2022-10-23T10:04:10;99107.47;;;28.10;55.07
69911;BME280;63555;49.920;17.868;2022-10-23T10:06:36;99102.22;;;27.33;55.72
69911;BME280;63555;49.920;17.868;2022-10-23T10:09:06;99100.72;;;26.83;57.64
69911;BME280;63555;49.920;17.868;2022-10-23T10:11:34;99104.00;;;26.15;59.74
69911;BME280;63555;49.920;17.868;2022-10-23T10:17:01;99121.06;;;24.76;64.84
69911;BME280;63555;49.920;17.868;2022-10-23T10:22:41;99116.09;;;23.50;70.33
69911;BME280;63555;49.920;17.868;2022-10-23T10:25:16;99115.94;;;22.90;72.75
69911;BME280;63555;49.920;17.868;2022-10-23T10:27:55;99112.47;;;22.42;75.64
69911;BME280;63555;49.920;17.868;2022-10-23T10:30:34;99120.47;;;22.23;77.70
69911;BME280;63555;49.920;17.868;2022-10-23T10:35:47;99116.59;;;21.76;80.10
69911;BME280;63555;49.920;17.868;2022-10-23T10:38:23;99115.25;;;21.50;81.72
69911;BME280;63555;49.920;17.868;2022-10-23T10:46:30;99103.66;;;20.76;87.44
69911;BME280;63555;49.920;17.868;2022-10-23T10:49:38;99112.84;;;20.50;89.62
69911;BME280;63555;49.920;17.868;2022-10-23T10:51:59;99115.03;;;20.27;91.13
69911;BME280;63555;49.920;17.868;2022-10-23T10:57:41;99110.56;;;20.02;94.79
69911;BME280;63555;49.920;17.868;2022-10-23T11:00:14;99101.75;;;19.97;96.58
69911;BME280;63555;49.920;17.868;2022-10-23T11:02:46;99102.84;;;19.86;97.51
69911;BME280;63555;49.920;17.868;2022-10-23T11:05:45;99091.91;;;19.67;99.64
69911;BME280;63555;49.920;17.868;2022-10-23T11:08:15;99095.38;;;19.52;100.00
69911;BME280;63555;49.920;17.868;2022-10-23T11:10:51;99092.69;;;19.42;100.00
69911;BME280;63555;49.920;17.868;2022-10-23T11:13:36;99087.06;;;19.33;100.00
69911;BME280;63555;49.920;17.868;2022-10-23T11:16:08;99087.09;;;19.23;100.00
69911;BME280;63555;49.920;17.868;2022-10-23T11:18:36;99087.06;;;19.13;100.00
69911;BME280;63555;49.920;17.868;2022-10-23T11:21:23;99075.06;;;19.06;100.00
69911;BME280;63555;49.920;17.868;2022-10-23T11:29:40;99059.31;;;18.94;100.00
69911;BME280;63555;49.920;17.868;2022-10-23T11:37:40;99055.72;;;18.48;100.00
69911;BME280;63555;49.920;17.868;2022-10-23T11:42:44;99064.38;;;18.23;100.00
69911;BME280;63555;49.920;17.868;2022-10-23T11:45:33;99063.28;;;18.14;100.00
69911;BME280;63555;49.920;17.868;2022-10-23T11:48:20;99071.72;;;18.00;100.00
69911;BME280;63555;49.920;17.868;2022-10-23T11:56:38;99068.03;;;17.64;100.00
69911;BME280;63555;49.920;17.868;2022-10-23T12:02:33;99043.41;;;17.47;100.00
69911;BME280;63555;49.920;17.868;2022-10-23T12:05:27;99033.59;;;17.48;100.00
69911;BME280;63555;49.920;17.868;2022-10-23T12:07:56;99029.31;;;17.47;100.00
69911;BME280;63555;49.920;17.868;2022-10-23T12:10:26;99026.88;;;17.40;100.00
69911;BME280;63555;49.920;17.868;2022-10-23T12:12:57;99023.94;;;17.36;100.00
69911;BME280;63555;49.920;17.868;2022-10-23T12:15:23;99015.16;;;17.36;100.00
69911;BME280;63555;49.920;17.868;2022-10-23T12:17:51;99014.84;;;17.32;100.00
69911;BME280;63555;49.920;17.868;2022-10-23T12:20:30;99014.09;;;17.37;100.00
69911;BME280;63555;49.920;17.868;2022-10-23T12:28:02;99018.22;;;17.55;100.00
69911;BME280;63555;49.920;17.868;2022-10-23T12:30:44;99003.88;;;17.61;100.00
69911;BME280;63555;49.920;17.868;2022-10-23T12:33:32;99010.00;;;17.61;100.00
69911;BME280;63555;49.920;17.868;2022-10-23T12:36:36;99005.50;;;17.62;100.00
69911;BME280;63555;49.920;17.868;2022-10-23T12:39:50;99003.63;;;17.62;100.00
69911;BME280;63555;49.920;17.868;2022-10-23T12:42:20;99011.06;;;17.60;100.00
69911;BME280;63555;49.920;17.868;2022-10-23T12:45:00;98997.25;;;17.63;100.00
69911;BME280;63555;49.920;17.868;2022-10-23T12:47:26;98999.66;;;17.65;100.00
69911;BME280;63555;49.920;17.868;2022-10-23T12:49:52;99001.88;;;17.73;100.00
69911;BME280;63555;49.920;17.868;2022-10-23T12:52:19;98991.53;;;17.82;100.00
69911;BME280;63555;49.920;17.868;2022-10-23T12:54:45;98984.06;;;17.84;100.00
69911;BME280;63555;49.920;17.868;2022-10-23T12:57:22;98987.53;;;17.84;100.00
69911;BME280;63555;49.920;17.868;2022-10-23T12:59:49;98983.28;;;17.83;100.00
69911;BME280;63555;49.920;17.868;2022-10-23T13:02:26;98982.47;;;17.83;100.00
69911;BME280;63555;49.920;17.868;2022-10-23T13:04:54;98983.28;;;17.83;100.00
69911;BME280;63555;49.920;17.868;2022-10-23T13:07:26;98972.63;;;17.83;100.00
69911;BME280;63555;49.920;17.868;2022-10-23T13:09:53;98974.78;;;17.81;100.00
69911;BME280;63555;49.920;17.868;2022-10-23T13:12:26;98973.97;;;17.81;100.00
69911;BME280;63555;49.920;17.868;2022-10-23T13:14:58;98972.09;;;17.76;100.00
69911;BME280;63555;49.920;17.868;2022-10-23T13:20:29;98962.34;;;17.55;100.00
69911;BME280;63555;49.920;17.868;2022-10-23T13:23:08;98965.25;;;17.48;100.00
69911;BME280;63555;49.920;17.868;2022-10-23T13:25:36;98956.75;;;17.51;100.00
69911;BME280;63555;49.920;17.868;2022-10-23T13:28:18;98953.81;;;17.48;100.00
69911;BME280;63555;49.920;17.868;2022-10-23T13:30:45;98953.50;;;17.44;100.00
69911;BME280;63555;49.920;17.868;2022-10-23T13:33:30;98947.09;;;17.40;100.00
69911;BME280;63555;49.920;17.868;2022-10-23T13:38:43;98949.94;;;17.28;100.00
69911;BME280;63555;49.920;17.868;2022-10-23T13:41:19;98950.69;;;17.19;100.00
69911;BME280;63555;49.920;17.868;2022-10-23T13:43:46;98945.56;;;17.12;100.00
69911;BME280;63555;49.920;17.868;2022-10-23T13:46:16;98962.31;;;17.07;100.00
69911;BME280;63555;49.920;17.868;2022-10-23T13:48:42;98960.66;;;17.01;100.00
69911;BME280;63555;49.920;17.868;2022-10-23T13:51:18;98954.78;;;16.94;100.00
69911;BME280;63555;49.920;17.868;2022-10-23T13:53:45;98960.53;;;16.86;100.00
69911;BME280;63555;49.920;17.868;2022-10-23T13:56:12;98958.91;;;16.80;100.00
69911;BME280;63555;49.920;17.868;2022-10-23T13:58:38;98947.41;;;16.74;100.00
69911;BME280;63555;49.920;17.868;2022-10-23T14:01:04;98944.72;;;16.69;100.00
69911;BME280;63555;49.920;17.868;2022-10-23T14:03:29;98941.75;;;16.66;100.00
69911;BME280;63555;49.920;17.868;2022-10-23T14:05:55;98943.03;;;16.63;100.00
69911;BME280;63555;49.920;17.868;2022-10-23T14:08:20;98937.97;;;16.62;100.00
69911;BME280;63555;49.920;17.868;2022-10-23T14:10:46;98939.53;;;16.58;100.00
69911;BME280;63555;49.920;17.868;2022-10-23T14:13:11;98942.44;;;16.56;100.00
69911;BME280;63555;49.920;17.868;2022-10-23T14:15:37;98936.31;;;16.56;100.00
69911;BME280;63555;49.920;17.868;2022-10-23T14:18:03;98932.31;;;16.53;100.00